Odessa, Minnesota
Current Conditions -  °F | °C
As of 5:54 PM on Sunday 21 Dec 2014 (Local Time) from KVVV Reporting Station
Haze Haze  
Wind Chill: 26°   Ceiling: 700
Heat Index: 34°   Visibility: 4mi
Dew Point: 30°   Wind: 9mph
Humidity: 87%   Direction: 150°SSE
Pressure: 29.58"   Gusts: NA
Location:  45.26°N, 96.33°W
Report Text: KVVV 212354Z AUTO 15008KT 4SM BR BKN007 OVC011 01/M01 A2958 RMK AO2
Loading
Personal Weather Stations






























Interactive Weather Map New forecast layout! Learn more

10-Day Weather Forecast

Advertisements
Track Severe Weather on mobile